createdAt,value
2023-03-08T00:01:27.435Z,16.64
2023-03-08T00:04:29.458Z,16.48
2023-03-08T00:07:31.942Z,16.54
2023-03-08T00:10:33.962Z,16.31
2023-03-08T00:13:36.088Z,16.28
2023-03-08T00:16:38.215Z,16.30
2023-03-08T00:19:40.501Z,16.28
2023-03-08T00:22:43.354Z,16.35
2023-03-08T00:25:45.372Z,16.21
2023-03-08T00:28:47.602Z,16.29
2023-03-08T00:31:49.716Z,16.20
2023-03-08T00:34:51.958Z,16.14
2023-03-08T00:37:53.921Z,16.05
2023-03-08T00:40:57.802Z,16.25
2023-03-08T00:43:59.868Z,16.02
2023-03-08T00:47:03.354Z,15.99
2023-03-08T00:50:06.146Z,16.00
2023-03-08T00:53:08.541Z,15.98
2023-03-08T00:56:11.535Z,16.00
2023-03-08T00:59:13.493Z,16.04
2023-03-08T01:02:15.525Z,16.02
2023-03-08T01:05:17.779Z,16.00
2023-03-08T01:08:21.452Z,15.89
2023-03-08T01:11:27.090Z,15.93
2023-03-08T01:14:30.530Z,15.87
2023-03-08T01:17:33.038Z,15.91
2023-03-08T01:20:35.591Z,15.84
2023-03-08T01:23:38.344Z,15.85
2023-03-08T01:26:41.411Z,15.88
2023-03-08T01:29:44.274Z,15.89
2023-03-08T01:32:46.510Z,15.89
2023-03-08T01:35:48.636Z,15.82
2023-03-08T01:38:51.355Z,15.74
2023-03-08T01:41:53.711Z,15.82
2023-03-08T01:44:59.259Z,15.73
2023-03-08T01:48:03.791Z,15.90
2023-03-08T01:51:29.151Z,15.95
2023-03-08T01:54:39.527Z,15.89
2023-03-08T01:57:49.776Z,15.92
2023-03-08T02:00:51.800Z,15.93
2023-03-08T02:03:54.033Z,15.87
2023-03-08T02:06:56.647Z,15.88
2023-03-08T02:10:00.289Z,15.97
2023-03-08T02:13:04.753Z,15.90
2023-03-08T02:16:09.998Z,16.01
2023-03-08T02:19:26.684Z,15.96
2023-03-08T02:22:28.901Z,15.90
2023-03-08T02:25:31.119Z,15.98
2023-03-08T02:28:33.622Z,15.97
2023-03-08T02:31:35.533Z,15.86
2023-03-08T02:34:39.527Z,15.79
2023-03-08T02:37:41.594Z,15.66
2023-03-08T02:40:43.612Z,15.53
2023-03-08T02:43:45.569Z,15.50
2023-03-08T02:46:47.649Z,15.49
2023-03-08T02:49:49.883Z,15.45
2023-03-08T02:52:52.024Z,15.46
2023-03-08T02:55:54.083Z,15.48
2023-03-08T02:58:56.125Z,15.52
2023-03-08T03:01:59.770Z,15.63
2023-03-08T03:05:06.179Z,15.76
2023-03-08T03:08:09.104Z,15.73
2023-03-08T03:11:22.875Z,15.72
2023-03-08T03:14:28.531Z,15.66
2023-03-08T03:17:31.907Z,15.72
2023-03-08T03:20:34.670Z,15.77
2023-03-08T03:23:36.951Z,15.69
2023-03-08T03:26:39.732Z,15.59
2023-03-08T03:29:41.954Z,15.53
2023-03-08T03:32:48.692Z,15.54
2023-03-08T03:35:55.623Z,15.65
2023-03-08T03:38:58.731Z,15.54
2023-03-08T03:42:01.459Z,15.59
2023-03-08T03:45:04.614Z,15.57
2023-03-08T03:48:07.016Z,15.81
2023-03-08T03:51:18.696Z,15.85
2023-03-08T03:54:25.079Z,15.86
2023-03-08T03:57:28.301Z,15.93
2023-03-08T04:00:30.703Z,15.92
2023-03-08T04:03:56.289Z,15.93
2023-03-08T04:06:59.293Z,15.83
2023-03-08T04:10:06.632Z,15.81
2023-03-08T04:13:13.443Z,15.70
2023-03-08T04:16:22.996Z,15.64
2023-03-08T04:19:25.355Z,15.57
2023-03-08T04:22:31.023Z,15.65
2023-03-08T04:25:41.465Z,15.66
2023-03-08T04:28:45.953Z,15.64
2023-03-08T04:31:48.333Z,15.68
2023-03-08T04:34:53.696Z,15.65
2023-03-08T04:37:58.795Z,15.91
2023-03-08T04:41:10.414Z,15.99
2023-03-08T04:44:41.822Z,15.97
2023-03-08T04:47:45.318Z,15.97
2023-03-08T04:51:00.425Z,15.85
2023-03-08T04:54:05.166Z,15.88
2023-03-08T04:57:09.671Z,16.26
2023-03-08T05:00:13.929Z,16.32
2023-03-08T05:03:17.999Z,16.79
2023-03-08T05:06:22.430Z,16.92
2023-03-08T05:09:25.091Z,17.08
2023-03-08T05:12:31.157Z,17.20
2023-03-08T05:15:35.555Z,17.28
2023-03-08T05:18:38.211Z,17.66
2023-03-08T05:21:41.745Z,18.01
2023-03-08T05:24:46.465Z,18.15
2023-03-08T05:27:49.367Z,18.30
2023-03-08T05:31:33.756Z,18.43
2023-03-08T05:34:39.491Z,18.53
2023-03-08T05:37:44.673Z,18.75
2023-03-08T05:40:47.627Z,18.88
2023-03-08T05:43:50.776Z,18.93
2023-03-08T05:46:53.847Z,18.96
2023-03-08T05:49:57.307Z,19.03
2023-03-08T05:52:59.546Z,19.01
2023-03-08T05:56:16.595Z,18.96
2023-03-08T05:59:26.787Z,18.99
2023-03-08T06:02:32.658Z,18.82
2023-03-08T06:05:35.369Z,18.71
2023-03-08T06:08:38.045Z,18.70
2023-03-08T06:11:41.768Z,18.69
2023-03-08T06:14:44.865Z,18.77
2023-03-08T06:17:48.810Z,18.66
2023-03-08T06:21:02.322Z,18.61
2023-03-08T06:24:07.039Z,18.57
2023-03-08T06:27:09.327Z,18.55
2023-03-08T06:30:14.375Z,18.51
2023-03-08T06:33:20.949Z,18.51
2023-03-08T06:36:23.627Z,18.42
2023-03-08T06:39:27.109Z,18.50
2023-03-08T06:42:40.773Z,18.53
2023-03-08T06:45:43.769Z,18.41
2023-03-08T06:48:48.685Z,18.38
2023-03-08T06:51:51.780Z,18.39
2023-03-08T06:54:54.016Z,18.57
2023-03-08T06:57:56.111Z,18.64
2023-03-08T07:01:00.198Z,19.05
2023-03-08T07:04:03.366Z,20.98
2023-03-08T07:07:07.766Z,22.25
2023-03-08T07:10:11.421Z,22.86
2023-03-08T07:13:13.448Z,23.14
2023-03-08T07:16:15.525Z,23.06
2023-03-08T07:19:17.580Z,22.73
2023-03-08T07:22:19.648Z,21.33
2023-03-08T07:25:22.328Z,19.94
2023-03-08T07:28:24.631Z,19.11
2023-03-08T07:31:29.076Z,18.64
2023-03-08T07:34:31.046Z,18.45
2023-03-08T07:37:33.562Z,18.46
2023-03-08T07:40:36.647Z,18.59
2023-03-08T07:43:38.831Z,18.63
2023-03-08T07:46:48.986Z,18.61
2023-03-08T07:49:51.196Z,18.55
2023-03-08T07:52:53.226Z,18.53
2023-03-08T07:55:57.126Z,18.44
2023-03-08T07:58:59.387Z,18.47
2023-03-08T08:02:01.393Z,18.43
2023-03-08T08:05:04.852Z,18.38
2023-03-08T08:08:06.852Z,18.36
2023-03-08T08:11:17.089Z,18.24
2023-03-08T08:14:19.187Z,18.26
2023-03-08T08:17:22.258Z,18.25
2023-03-08T08:20:25.657Z,18.23
2023-03-08T08:23:28.473Z,18.22
2023-03-08T08:26:30.514Z,18.17
2023-03-08T08:29:33.062Z,18.20
2023-03-08T08:32:35.673Z,18.16
2023-03-08T08:35:43.307Z,18.10
2023-03-08T08:38:46.976Z,18.26
2023-03-08T08:41:50.275Z,18.23
2023-03-08T08:44:56.122Z,18.26
2023-03-08T08:47:58.102Z,18.28
2023-03-08T08:51:01.003Z,18.30
2023-03-08T08:54:03.484Z,18.35
2023-03-08T08:57:06.888Z,18.39
2023-03-08T09:00:10.221Z,18.43
2023-03-08T09:03:14.139Z,18.48
2023-03-08T09:06:19.896Z,18.40
2023-03-08T09:09:21.830Z,18.39
2023-03-08T09:12:23.792Z,18.42
2023-03-08T09:15:26.378Z,18.43
2023-03-08T09:18:28.838Z,18.51
2023-03-08T09:21:32.469Z,18.50
2023-03-08T09:24:34.646Z,18.53
2023-03-08T09:27:37.909Z,18.53
2023-03-08T09:30:40.031Z,18.61
2023-03-08T09:33:43.923Z,18.63
2023-03-08T09:36:46.042Z,18.60
2023-03-08T09:39:51.375Z,18.71
2023-03-08T09:42:59.291Z,18.74
2023-03-08T09:46:01.444Z,18.66
2023-03-08T09:49:05.682Z,18.76
2023-03-08T09:52:11.340Z,18.86
2023-03-08T09:55:43.430Z,18.72
2023-03-08T09:58:58.282Z,18.81
2023-03-08T10:02:24.708Z,18.86
2023-03-08T10:05:44.678Z,18.99
2023-03-08T10:08:49.935Z,19.13
2023-03-08T10:12:02.984Z,19.18
2023-03-08T10:15:15.595Z,19.33
2023-03-08T10:18:20.510Z,19.35
2023-03-08T10:21:26.077Z,19.46
2023-03-08T10:24:49.450Z,19.63
2023-03-08T10:27:54.613Z,20.00
2023-03-08T10:31:04.523Z,20.49
2023-03-08T10:34:12.793Z,20.42
2023-03-08T10:37:15.260Z,20.31
2023-03-08T10:40:22.002Z,20.27
2023-03-08T10:43:33.257Z,20.04
2023-03-08T10:46:47.374Z,19.84
2023-03-08T10:49:49.510Z,19.84
2023-03-08T10:52:52.269Z,19.74
2023-03-08T10:55:54.534Z,19.50
2023-03-08T10:58:58.197Z,19.59
2023-03-08T11:02:16.297Z,19.60
2023-03-08T11:05:21.806Z,19.65
2023-03-08T11:08:54.540Z,19.64
2023-03-08T11:11:58.109Z,19.85
2023-03-08T11:15:00.278Z,19.87
2023-03-08T11:18:39.893Z,19.90
2023-03-08T11:21:44.731Z,19.94
2023-03-08T11:24:46.753Z,20.03
2023-03-08T11:28:10.382Z,20.19
2023-03-08T11:31:27.544Z,20.22
2023-03-08T11:35:01.023Z,20.14
2023-03-08T11:38:20.207Z,20.34
2023-03-08T11:41:31.402Z,20.30
2023-03-08T11:44:49.420Z,20.30
2023-03-08T11:48:00.282Z,20.33
2023-03-08T11:51:09.791Z,20.35
2023-03-08T11:54:15.880Z,20.21
2023-03-08T11:57:19.899Z,20.27
2023-03-08T12:00:26.567Z,20.23
2023-03-08T12:03:37.613Z,20.27
2023-03-08T12:06:42.343Z,20.34
2023-03-08T12:10:01.567Z,20.39
2023-03-08T12:13:03.420Z,20.40
2023-03-08T12:16:25.544Z,20.37
2023-03-08T12:19:36.916Z,20.36
2023-03-08T12:22:58.142Z,20.34
2023-03-08T12:26:09.320Z,20.40
2023-03-08T12:29:46.419Z,20.49
2023-03-08T12:32:49.604Z,20.46
2023-03-08T12:36:05.321Z,20.37
2023-03-08T12:39:25.436Z,20.33
2023-03-08T12:42:40.065Z,20.23
2023-03-08T12:45:45.292Z,20.14
2023-03-08T12:48:50.854Z,20.05
2023-03-08T12:52:32.225Z,20.07
2023-03-08T12:55:34.456Z,20.20
2023-03-08T12:58:57.219Z,20.25
2023-03-08T13:02:00.887Z,20.37
2023-03-08T13:05:31.158Z,20.34
2023-03-08T13:08:44.572Z,20.39
2023-03-08T13:11:52.950Z,20.42
2023-03-08T13:15:02.460Z,20.41
2023-03-08T13:18:08.980Z,20.38
2023-03-08T13:21:31.303Z,20.36
2023-03-08T13:24:39.233Z,20.31
2023-03-08T13:28:13.568Z,20.33
2023-03-08T13:31:30.415Z,20.41
2023-03-08T13:34:35.688Z,20.40
2023-03-08T13:37:38.505Z,20.38
2023-03-08T13:40:51.497Z,20.34
2023-03-08T13:44:01.441Z,20.44
2023-03-08T13:47:30.898Z,20.36
2023-03-08T13:50:35.320Z,20.49
2023-03-08T13:53:38.360Z,20.41
2023-03-08T13:56:40.786Z,20.31
2023-03-08T13:59:49.663Z,20.27
2023-03-08T14:02:53.110Z,20.26
2023-03-08T14:05:55.295Z,20.16
2023-03-08T14:09:03.810Z,20.21
2023-03-08T14:12:06.808Z,20.26
2023-03-08T14:15:18.849Z,20.13
2023-03-08T14:18:30.846Z,20.08
2023-03-08T14:21:32.965Z,20.03
2023-03-08T14:24:36.463Z,19.93
2023-03-08T14:27:41.741Z,20.06
2023-03-08T14:30:49.099Z,20.11
2023-03-08T14:34:02.227Z,20.09
2023-03-08T14:45:50.057Z,19.85
2023-03-08T14:49:00.495Z,19.75
2023-03-08T14:52:02.998Z,19.75
2023-03-08T14:55:26.869Z,19.71
2023-03-08T14:58:31.318Z,19.67
2023-03-08T15:01:38.057Z,19.59
2023-03-08T15:04:43.821Z,19.54
2023-03-08T15:07:47.574Z,19.51
2023-03-08T15:10:50.348Z,19.44
2023-03-08T15:13:52.489Z,19.30
2023-03-08T15:16:55.462Z,19.25
2023-03-08T15:19:57.467Z,19.23
2023-03-08T15:23:02.702Z,19.30
2023-03-08T15:26:06.614Z,19.27
2023-03-08T15:29:20.380Z,19.29
2023-03-08T15:32:22.403Z,19.19
2023-03-08T15:35:25.333Z,19.24
2023-03-08T15:38:27.396Z,19.47
2023-03-08T15:41:29.582Z,19.67
2023-03-08T15:44:32.096Z,19.51
2023-03-08T15:47:34.066Z,19.33
2023-03-08T15:50:36.615Z,19.40
2023-03-08T15:53:38.621Z,19.54
2023-03-08T15:56:40.791Z,19.68
2023-03-08T15:59:43.487Z,19.77
2023-03-08T16:02:45.741Z,19.85
2023-03-08T16:05:47.791Z,19.92
2023-03-08T16:08:50.301Z,20.07
2023-03-08T16:11:52.292Z,20.37
2023-03-08T16:14:55.184Z,20.61
2023-03-08T16:17:57.242Z,20.74
2023-03-08T16:20:59.789Z,20.84
2023-03-08T16:24:02.699Z,20.88
2023-03-08T16:27:05.562Z,20.89
2023-03-08T16:30:08.331Z,20.91
2023-03-08T16:33:10.536Z,20.92
2023-03-08T16:36:12.963Z,20.93
2023-03-08T16:39:15.019Z,20.94
2023-03-08T16:42:18.898Z,20.94
2023-03-08T16:45:21.031Z,20.92
2023-03-08T16:48:23.478Z,20.70
2023-03-08T16:51:27.787Z,20.06
2023-03-08T16:54:31.083Z,19.47
2023-03-08T16:57:33.240Z,19.19
2023-03-08T17:00:35.215Z,19.05
2023-03-08T17:03:38.534Z,18.92
2023-03-08T17:06:44.557Z,18.79
2023-03-08T17:09:47.037Z,18.66
2023-03-08T17:12:49.080Z,18.58
2023-03-08T17:15:51.242Z,18.60
2023-03-08T17:18:54.282Z,18.58
2023-03-08T17:21:56.450Z,18.63
2023-03-08T17:24:58.532Z,18.60
2023-03-08T17:28:00.607Z,18.87
2023-03-08T17:31:06.890Z,19.12
2023-03-08T17:34:09.285Z,19.24
2023-03-08T17:37:11.526Z,19.38
2023-03-08T17:40:14.200Z,19.46
2023-03-08T17:43:16.297Z,19.46
2023-03-08T17:46:22.118Z,19.52
2023-03-08T17:49:25.231Z,19.54
2023-03-08T17:52:27.346Z,19.52
2023-03-08T17:55:29.379Z,19.53
2023-03-08T17:58:31.385Z,19.55
2023-03-08T18:01:33.797Z,19.47
2023-03-08T18:04:36.093Z,19.30
2023-03-08T18:07:41.527Z,19.29
2023-03-08T18:10:44.022Z,19.29
2023-03-08T18:13:46.767Z,19.25
2023-03-08T18:16:48.738Z,19.17
2023-03-08T18:19:50.901Z,19.09
2023-03-08T18:22:53.166Z,19.09
2023-03-08T18:25:55.241Z,19.02
2023-03-08T18:28:57.202Z,18.93
2023-03-08T18:31:59.500Z,18.87
2023-03-08T18:35:01.622Z,18.76
2023-03-08T18:38:04.420Z,18.67
2023-03-08T18:41:17.656Z,18.70
2023-03-08T18:44:19.779Z,18.61
2023-03-08T18:47:21.926Z,18.51
2023-03-08T18:50:25.280Z,18.54
2023-03-08T18:53:27.424Z,18.45
2023-03-08T18:56:30.119Z,18.42
2023-03-08T18:59:33.454Z,18.34
2023-03-08T19:02:35.777Z,18.21
2023-03-08T19:05:38.063Z,18.13
2023-03-08T19:08:40.524Z,18.10
2023-03-08T19:11:43.262Z,18.01
2023-03-08T19:14:48.331Z,18.01
2023-03-08T19:17:53.965Z,18.00
2023-03-08T19:20:56.101Z,17.98
2023-03-08T19:23:58.504Z,17.95
2023-03-08T19:27:02.227Z,17.87
2023-03-08T19:30:04.540Z,17.81
2023-03-08T19:33:06.582Z,17.74
2023-03-08T19:36:09.589Z,17.74
2023-03-08T19:39:20.002Z,17.73
2023-03-08T19:42:22.425Z,17.77
2023-03-08T19:45:25.420Z,17.60
2023-03-08T19:48:29.457Z,17.50
2023-03-08T19:51:32.237Z,17.57
2023-03-08T19:54:34.940Z,17.52
2023-03-08T19:57:37.617Z,17.51
2023-03-08T20:00:43.152Z,17.31
2023-03-08T20:03:46.331Z,17.35
2023-03-08T20:06:50.235Z,17.32
2023-03-08T20:09:58.841Z,17.17
2023-03-08T20:13:04.445Z,17.34
2023-03-08T20:16:07.113Z,17.66
2023-03-08T20:19:09.009Z,18.39
2023-03-08T20:22:11.046Z,19.59
2023-03-08T20:25:13.058Z,20.31
2023-03-08T20:28:15.018Z,20.68
2023-03-08T20:31:17.635Z,20.55
2023-03-08T20:34:19.624Z,20.71
2023-03-08T20:37:22.154Z,20.86
2023-03-08T20:40:24.198Z,20.73
2023-03-08T20:43:26.341Z,19.40
2023-03-08T20:46:33.458Z,18.11
2023-03-08T20:49:35.824Z,17.26
2023-03-08T20:52:37.910Z,16.96
2023-03-08T20:55:41.099Z,16.69
2023-03-08T20:58:43.319Z,16.58
2023-03-08T21:01:45.841Z,16.57
2023-03-08T21:04:47.840Z,16.34
2023-03-08T21:07:52.590Z,16.23
2023-03-08T21:10:58.709Z,16.24
2023-03-08T21:14:00.713Z,16.22
2023-03-08T21:17:02.681Z,16.10
2023-03-08T21:20:05.840Z,16.12
2023-03-08T21:23:07.782Z,16.24
2023-03-08T21:26:09.851Z,16.20
2023-03-08T21:29:15.524Z,16.13
2023-03-08T21:32:18.031Z,16.16
2023-03-08T21:35:20.140Z,16.10
2023-03-08T21:38:24.417Z,16.11
2023-03-08T21:41:30.292Z,15.95
2023-03-08T21:44:32.444Z,16.01
2023-03-08T21:47:35.834Z,15.89
2023-03-08T21:50:39.135Z,15.80
2023-03-08T21:53:42.097Z,15.72
2023-03-08T21:56:44.375Z,15.76
2023-03-08T21:59:46.463Z,15.75
2023-03-08T22:02:54.543Z,15.84
2023-03-08T22:05:58.334Z,15.79
2023-03-08T22:09:00.405Z,15.83
2023-03-08T22:12:02.468Z,15.93
2023-03-08T22:15:06.107Z,15.94
2023-03-08T22:18:08.126Z,15.80
2023-03-08T22:21:10.665Z,15.73
2023-03-08T22:24:12.585Z,15.80
2023-03-08T22:27:14.924Z,15.85
2023-03-08T22:30:17.135Z,15.75
2023-03-08T22:33:19.180Z,15.61
2023-03-08T22:36:22.385Z,15.47
2023-03-08T22:39:24.405Z,15.46
2023-03-08T22:42:26.561Z,15.45
2023-03-08T22:45:29.818Z,15.44
2023-03-08T22:48:31.753Z,15.39
2023-03-08T22:51:36.491Z,15.49
2023-03-08T22:54:38.666Z,15.48
2023-03-08T22:57:40.768Z,15.52
2023-03-08T23:00:42.776Z,15.62
2023-03-08T23:03:46.265Z,15.72
2023-03-08T23:06:48.403Z,15.65
2023-03-08T23:09:50.508Z,15.67
2023-03-08T23:12:52.663Z,15.69
2023-03-08T23:15:54.597Z,15.68
2023-03-08T23:18:56.630Z,15.67
2023-03-08T23:21:58.732Z,15.47
2023-03-08T23:25:00.742Z,15.52
2023-03-08T23:28:02.779Z,15.54
2023-03-08T23:31:16.782Z,15.53
2023-03-08T23:34:18.784Z,15.59
2023-03-08T23:37:21.177Z,15.47
2023-03-08T23:40:23.192Z,15.58
2023-03-08T23:43:26.164Z,15.51
2023-03-08T23:46:29.251Z,15.53
2023-03-08T23:49:31.325Z,15.70
2023-03-08T23:52:33.398Z,15.85
2023-03-08T23:55:40.228Z,15.86
2023-03-08T23:58:42.322Z,15.80
